sensor_id;sensor_type;location;lat;lon;timestamp;temperature;humidity
50690;DHT22;71367;48.298;11.238;2023-12-20T00:01:50;4.70;94.10
50690;DHT22;71367;48.298;11.238;2023-12-20T00:16:56;4.70;94.50
50690;DHT22;71367;48.298;11.238;2023-12-20T00:32:00;4.80;95.10
50690;DHT22;71367;48.298;11.238;2023-12-20T00:47:04;4.80;95.50
50690;DHT22;71367;48.298;11.238;2023-12-20T01:02:09;4.90;96.10
50690;DHT22;71367;48.298;11.238;2023-12-20T01:17:17;5.00;96.70
50690;DHT22;71367;48.298;11.238;2023-12-20T01:32:24;5.10;96.20
50690;DHT22;71367;48.298;11.238;2023-12-20T01:47:31;5.10;96.90
50690;DHT22;71367;48.298;11.238;2023-12-20T02:02:36;4.90;97.70
50690;DHT22;71367;48.298;11.238;2023-12-20T02:17:41;4.70;98.80
50690;DHT22;71367;48.298;11.238;2023-12-20T02:32:45;4.60;99.90
50690;DHT22;71367;48.298;11.238;2023-12-20T02:47:51;4.70;99.90
50690;DHT22;71367;48.298;11.238;2023-12-20T03:02:56;4.60;99.90
50690;DHT22;71367;48.298;11.238;2023-12-20T03:18:06;4.70;99.90
50690;DHT22;71367;48.298;11.238;2023-12-20T03:33:10;4.80;99.90
50690;DHT22;71367;48.298;11.238;2023-12-20T03:48:14;4.80;99.90
50690;DHT22;71367;48.298;11.238;2023-12-20T04:03:18;4.50;99.90
50690;DHT22;71367;48.298;11.238;2023-12-20T04:18:21;4.30;99.90
50690;DHT22;71367;48.298;11.238;2023-12-20T04:33:25;4.20;99.90
50690;DHT22;71367;48.298;11.238;2023-12-20T04:48:28;4.10;99.90
50690;DHT22;71367;48.298;11.238;2023-12-20T05:03:32;4.00;99.90
50690;DHT22;71367;48.298;11.238;2023-12-20T05:18:36;4.00;99.90
50690;DHT22;71367;48.298;11.238;2023-12-20T05:33:40;4.00;99.90
50690;DHT22;71367;48.298;11.238;2023-12-20T05:48:43;4.00;99.90
50690;DHT22;71367;48.298;11.238;2023-12-20T06:03:47;4.00;99.90
50690;DHT22;71367;48.298;11.238;2023-12-20T06:18:51;3.90;99.90
50690;DHT22;71367;48.298;11.238;2023-12-20T06:33:54;3.70;99.90
50690;DHT22;71367;48.298;11.238;2023-12-20T06:48:59;3.60;99.90
50690;DHT22;71367;48.298;11.238;2023-12-20T07:04:03;3.40;99.90
50690;DHT22;71367;48.298;11.238;2023-12-20T07:19:07;3.40;99.90
50690;DHT22;71367;48.298;11.238;2023-12-20T07:34:11;3.40;99.90
50690;DHT22;71367;48.298;11.238;2023-12-20T07:49:15;3.40;99.90
50690;DHT22;71367;48.298;11.238;2023-12-20T08:04:18;3.50;99.90
50690;DHT22;71367;48.298;11.238;2023-12-20T08:19:24;3.50;99.90
50690;DHT22;71367;48.298;11.238;2023-12-20T08:34:28;3.50;99.90
50690;DHT22;71367;48.298;11.238;2023-12-20T08:49:32;3.60;99.90
50690;DHT22;71367;48.298;11.238;2023-12-20T09:04:35;3.70;99.90
50690;DHT22;71367;48.298;11.238;2023-12-20T09:19:39;3.80;99.90
50690;DHT22;71367;48.298;11.238;2023-12-20T09:34:43;3.90;99.90
50690;DHT22;71367;48.298;11.238;2023-12-20T09:49:47;4.10;99.90
50690;DHT22;71367;48.298;11.238;2023-12-20T10:04:50;4.30;99.90
50690;DHT22;71367;48.298;11.238;2023-12-20T10:19:54;4.50;99.90
50690;DHT22;71367;48.298;11.238;2023-12-20T10:34:58;4.60;99.90
50690;DHT22;71367;48.298;11.238;2023-12-20T10:50:05;4.70;99.90
50690;DHT22;71367;48.298;11.238;2023-12-20T11:05:21;5.00;99.90
50690;DHT22;71367;48.298;11.238;2023-12-20T11:20:36;5.30;99.90
50690;DHT22;71367;48.298;11.238;2023-12-20T11:35:40;5.30;99.90
50690;DHT22;71367;48.298;11.238;2023-12-20T11:50:45;5.50;99.90
50690;DHT22;71367;48.298;11.238;2023-12-20T12:05:49;5.10;99.90
50690;DHT22;71367;48.298;11.238;2023-12-20T12:21:01;4.50;99.90
50690;DHT22;71367;48.298;11.238;2023-12-20T12:36:06;4.60;99.90
50690;DHT22;71367;48.298;11.238;2023-12-20T12:51:10;4.60;99.90
50690;DHT22;71367;48.298;11.238;2023-12-20T13:06:16;4.50;99.90
50690;DHT22;71367;48.298;11.238;2023-12-20T13:21:20;4.40;99.90
50690;DHT22;71367;48.298;11.238;2023-12-20T13:36:23;4.40;99.90
50690;DHT22;71367;48.298;11.238;2023-12-20T13:51:27;4.30;99.90
50690;DHT22;71367;48.298;11.238;2023-12-20T14:06:31;4.30;99.90
50690;DHT22;71367;48.298;11.238;2023-12-20T14:21:35;4.30;99.90
50690;DHT22;71367;48.298;11.238;2023-12-20T14:36:39;4.30;99.90
50690;DHT22;71367;48.298;11.238;2023-12-20T14:51:45;4.20;99.90
50690;DHT22;71367;48.298;11.238;2023-12-20T15:06:50;4.00;99.90
50690;DHT22;71367;48.298;11.238;2023-12-20T15:21:54;3.80;99.90
50690;DHT22;71367;48.298;11.238;2023-12-20T15:36:58;3.60;99.90
50690;DHT22;71367;48.298;11.238;2023-12-20T15:52:02;3.30;99.90
50690;DHT22;71367;48.298;11.238;2023-12-20T16:07:06;3.00;99.90
50690;DHT22;71367;48.298;11.238;2023-12-20T16:22:09;2.70;99.90
50690;DHT22;71367;48.298;11.238;2023-12-20T16:37:13;2.50;99.90
50690;DHT22;71367;48.298;11.238;2023-12-20T16:52:17;2.40;99.90
50690;DHT22;71367;48.298;11.238;2023-12-20T17:07:21;2.50;99.90
50690;DHT22;71367;48.298;11.238;2023-12-20T17:22:25;2.60;99.90
50690;DHT22;71367;48.298;11.238;2023-12-20T17:37:29;2.70;99.90
50690;DHT22;71367;48.298;11.238;2023-12-20T17:52:33;2.70;99.90
50690;DHT22;71367;48.298;11.238;2023-12-20T18:07:38;2.90;99.90
50690;DHT22;71367;48.298;11.238;2023-12-20T18:22:45;3.00;99.90
50690;DHT22;71367;48.298;11.238;2023-12-20T18:37:49;3.20;99.90
50690;DHT22;71367;48.298;11.238;2023-12-20T18:52:53;3.20;99.90
50690;DHT22;71367;48.298;11.238;2023-12-20T19:07:57;3.10;99.90
50690;DHT22;71367;48.298;11.238;2023-12-20T19:23:01;3.00;99.90
50690;DHT22;71367;48.298;11.238;2023-12-20T19:38:05;3.10;99.90
50690;DHT22;71367;48.298;11.238;2023-12-20T19:53:11;3.10;99.90
50690;DHT22;71367;48.298;11.238;2023-12-20T20:08:15;3.20;99.90
50690;DHT22;71367;48.298;11.238;2023-12-20T20:23:21;3.20;99.90
50690;DHT22;71367;48.298;11.238;2023-12-20T20:38:26;3.30;99.90
50690;DHT22;71367;48.298;11.238;2023-12-20T20:53:30;3.30;99.90
50690;DHT22;71367;48.298;11.238;2023-12-20T21:08:34;3.30;99.90
50690;DHT22;71367;48.298;11.238;2023-12-20T21:23:38;3.30;99.90
50690;DHT22;71367;48.298;11.238;2023-12-20T21:38:42;3.30;99.90
50690;DHT22;71367;48.298;11.238;2023-12-20T21:53:47;3.20;99.90
50690;DHT22;71367;48.298;11.238;2023-12-20T22:08:51;3.10;99.90
50690;DHT22;71367;48.298;11.238;2023-12-20T22:23:56;3.10;99.90
50690;DHT22;71367;48.298;11.238;2023-12-20T22:39:02;3.00;99.90
50690;DHT22;71367;48.298;11.238;2023-12-20T22:54:08;3.00;99.90
50690;DHT22;71367;48.298;11.238;2023-12-20T23:09:12;2.90;99.90
50690;DHT22;71367;48.298;11.238;2023-12-20T23:24:16;3.00;99.90
50690;DHT22;71367;48.298;11.238;2023-12-20T23:39:22;3.10;99.90
50690;DHT22;71367;48.298;11.238;2023-12-20T23:54:26;3.30;99.90
